createdAt,value
2022-12-06T00:00:10.422Z,3.02
2022-12-06T00:01:50.205Z,3.03
2022-12-06T00:03:29.971Z,3.01
2022-12-06T00:05:09.731Z,3
2022-12-06T00:06:49.496Z,3.01
2022-12-06T00:08:29.260Z,3
2022-12-06T00:10:09.026Z,2.99
2022-12-06T00:11:48.773Z,3
2022-12-06T00:13:28.546Z,2.97
2022-12-06T00:15:08.296Z,2.98
2022-12-06T00:16:48.076Z,2.98
2022-12-06T00:18:27.839Z,2.98
2022-12-06T00:20:07.592Z,2.99
2022-12-06T00:21:47.362Z,2.97
2022-12-06T00:23:27.125Z,2.98
2022-12-06T00:25:06.893Z,2.95
2022-12-06T00:26:46.648Z,2.96
2022-12-06T00:28:26.419Z,2.96
2022-12-06T00:30:06.190Z,2.94
2022-12-06T00:33:25.714Z,2.94
2022-12-06T00:35:05.473Z,2.93
2022-12-06T00:36:45.229Z,2.95
2022-12-06T00:38:25.109Z,2.91
2022-12-06T00:40:04.793Z,2.93
2022-12-06T00:41:44.530Z,2.92
2022-12-06T00:43:24.298Z,2.92
2022-12-06T00:45:04.070Z,2.9
2022-12-06T00:46:43.831Z,2.92
2022-12-06T00:48:23.580Z,2.92
2022-12-06T00:50:03.349Z,2.92
2022-12-06T00:51:43.125Z,2.92
2022-12-06T00:53:22.891Z,2.91
2022-12-06T00:55:02.632Z,2.88
2022-12-06T00:56:42.392Z,2.9
2022-12-06T01:00:01.944Z,2.87
2022-12-06T01:01:41.706Z,2.88
2022-12-06T01:03:21.470Z,2.88
2022-12-06T01:05:01.220Z,2.89
2022-12-06T01:06:40.979Z,2.89
2022-12-06T01:08:20.758Z,2.86
2022-12-06T01:10:00.599Z,2.88
2022-12-06T01:11:40.278Z,2.86
2022-12-06T01:13:20.046Z,2.87
2022-12-06T01:14:59.811Z,2.86
2022-12-06T01:16:39.588Z,2.87
2022-12-06T01:18:19.345Z,2.86
2022-12-06T01:19:59.109Z,2.85
2022-12-06T01:21:38.858Z,2.85
2022-12-06T01:26:38.152Z,2.82
2022-12-06T01:28:17.922Z,2.84
2022-12-06T01:29:57.727Z,2.82
2022-12-06T01:31:37.459Z,2.83
2022-12-06T01:33:17.209Z,2.85
2022-12-06T01:36:36.729Z,2.81
2022-12-06T01:38:16.499Z,2.82
2022-12-06T01:39:56.251Z,2.81
2022-12-06T01:41:36.021Z,2.82
2022-12-06T01:43:15.807Z,2.8
2022-12-06T01:44:55.554Z,2.81
2022-12-06T01:46:35.327Z,2.79
2022-12-06T01:48:15.082Z,2.77
2022-12-06T01:49:54.834Z,2.79
2022-12-06T01:51:34.615Z,2.79
2022-12-06T01:53:14.358Z,2.78
2022-12-06T01:54:54.131Z,2.76
2022-12-06T01:58:13.653Z,2.77
2022-12-06T01:59:53.447Z,2.77
2022-12-06T02:01:33.199Z,2.76
2022-12-06T02:03:12.961Z,2.76
2022-12-06T02:04:52.720Z,2.78
2022-12-06T02:06:32.475Z,2.76
2022-12-06T02:09:52.023Z,2.75
2022-12-06T02:11:31.791Z,2.76
2022-12-06T02:13:11.543Z,2.76
2022-12-06T02:14:51.313Z,2.73
2022-12-06T02:16:31.060Z,2.73
2022-12-06T02:18:10.830Z,2.72
2022-12-06T02:19:50.597Z,2.74
2022-12-06T02:21:30.360Z,2.73
2022-12-06T02:23:10.131Z,2.72
2022-12-06T02:24:49.880Z,2.71
2022-12-06T02:26:29.652Z,2.71
2022-12-06T02:28:09.415Z,2.69
2022-12-06T02:31:28.951Z,2.71
2022-12-06T02:33:08.708Z,2.71
2022-12-06T02:34:48.467Z,2.71
2022-12-06T02:36:28.240Z,2.7
2022-12-06T02:39:47.763Z,2.69
2022-12-06T02:41:27.525Z,2.7
2022-12-06T02:43:07.273Z,2.69
2022-12-06T02:46:26.813Z,2.67
2022-12-06T02:49:46.329Z,2.66
2022-12-06T02:51:26.110Z,2.66
2022-12-06T02:53:05.867Z,2.64
2022-12-06T02:54:45.624Z,2.65
2022-12-06T02:56:25.393Z,2.64
2022-12-06T02:59:44.925Z,2.62
2022-12-06T03:01:24.725Z,2.61
2022-12-06T03:03:04.463Z,2.6
2022-12-06T03:04:44.207Z,2.62
2022-12-06T03:06:23.977Z,2.6
2022-12-06T03:09:43.527Z,2.59
2022-12-06T03:11:23.274Z,2.58
2022-12-06T03:13:03.044Z,2.59
2022-12-06T03:14:42.799Z,2.59
2022-12-06T03:16:22.558Z,2.57
2022-12-06T03:19:42.092Z,2.56
2022-12-06T03:21:21.861Z,2.57
2022-12-06T03:23:01.644Z,2.54
2022-12-06T03:24:41.391Z,2.54
2022-12-06T03:26:21.156Z,2.52
2022-12-06T03:28:00.915Z,2.53
2022-12-06T03:31:20.431Z,2.5
2022-12-06T03:33:00.207Z,2.5
2022-12-06T03:34:39.974Z,2.52
2022-12-06T03:36:19.804Z,2.5
2022-12-06T03:37:59.495Z,2.49
2022-12-06T03:39:39.266Z,2.49
2022-12-06T03:41:19.020Z,2.47
2022-12-06T03:42:58.774Z,2.48
2022-12-06T03:44:38.559Z,2.46
2022-12-06T03:46:18.317Z,2.46
2022-12-06T03:47:58.081Z,2.46
2022-12-06T03:49:37.842Z,2.42
2022-12-06T03:51:17.602Z,2.44
2022-12-06T03:52:57.410Z,2.45
2022-12-06T03:54:37.139Z,2.46
2022-12-06T03:56:16.908Z,2.33
2022-12-06T03:57:56.672Z,2.45
2022-12-06T03:59:36.433Z,2.45
2022-12-06T04:01:16.182Z,2.43
2022-12-06T04:02:55.958Z,2.44
2022-12-06T04:04:35.728Z,2.42
2022-12-06T04:06:15.477Z,2.39
2022-12-06T04:09:35.008Z,2.42
2022-12-06T04:11:14.771Z,2.42
2022-12-06T04:14:34.306Z,2.4
2022-12-06T04:16:14.072Z,2.38
2022-12-06T04:19:33.594Z,2.38
2022-12-06T04:21:13.352Z,2.38
2022-12-06T04:22:53.119Z,2.39
2022-12-06T04:24:32.885Z,2.36
2022-12-06T04:26:12.638Z,2.38
2022-12-06T04:29:32.173Z,2.35
2022-12-06T04:31:12.009Z,2.34
2022-12-06T04:32:51.721Z,2.34
2022-12-06T04:34:31.477Z,2.34
2022-12-06T04:36:11.234Z,2.34
2022-12-06T04:39:30.758Z,2.34
2022-12-06T04:41:10.532Z,2.33
2022-12-06T04:42:50.287Z,2.33
2022-12-06T04:44:30.058Z,2.32
2022-12-06T04:46:09.811Z,2.32
2022-12-06T04:47:49.570Z,2.31
2022-12-06T04:49:29.332Z,2.34
2022-12-06T04:51:09.103Z,2.33
2022-12-06T04:52:48.857Z,2.31
2022-12-06T04:54:28.634Z,2.32
2022-12-06T04:56:08.418Z,2.31
2022-12-06T04:57:48.159Z,2.3
2022-12-06T04:59:27.922Z,2.27
2022-12-06T05:01:07.699Z,2.28
2022-12-06T05:02:47.486Z,2.31
2022-12-06T05:04:27.202Z,2.29
2022-12-06T05:06:06.987Z,2.28
2022-12-06T05:07:46.746Z,2.28
2022-12-06T05:09:26.507Z,2.29
2022-12-06T05:11:06.271Z,2.26
2022-12-06T05:12:46.027Z,2.28
2022-12-06T05:14:25.805Z,2.29
2022-12-06T05:16:05.562Z,2.31
2022-12-06T05:19:25.097Z,2.27
2022-12-06T05:21:04.878Z,2.28
2022-12-06T05:22:44.627Z,2.28
2022-12-06T05:26:04.140Z,2.27
2022-12-06T05:29:23.717Z,2.27
2022-12-06T05:31:03.429Z,2.24
2022-12-06T05:34:22.959Z,2.26
2022-12-06T05:36:02.720Z,2.25
2022-12-06T05:37:42.492Z,2.27
2022-12-06T05:39:22.244Z,2.24
2022-12-06T05:41:02.013Z,2.26
2022-12-06T05:42:41.776Z,2.24
2022-12-06T05:44:21.535Z,2.24
2022-12-06T05:46:01.298Z,2.25
2022-12-06T05:49:20.824Z,2.23
2022-12-06T05:51:00.597Z,2.26
2022-12-06T05:52:40.369Z,2.2
2022-12-06T05:54:20.122Z,2.24
2022-12-06T05:55:59.899Z,2.29
2022-12-06T05:57:39.649Z,2.22
2022-12-06T05:59:19.412Z,2.21
2022-12-06T06:00:59.266Z,2.22
2022-12-06T06:02:38.937Z,2.22
2022-12-06T06:04:18.707Z,2.22
2022-12-06T06:05:58.484Z,2.2
2022-12-06T06:07:38.241Z,2.21
2022-12-06T06:09:17.995Z,2.2
2022-12-06T06:10:57.775Z,2.21
2022-12-06T06:12:37.526Z,2.21
2022-12-06T06:14:17.307Z,2.21
2022-12-06T06:15:57.068Z,2.1
2022-12-06T06:17:36.833Z,2.2
2022-12-06T06:19:16.595Z,2.19
2022-12-06T06:20:56.343Z,2.19
2022-12-06T06:22:36.119Z,2.2
2022-12-06T06:24:15.873Z,2.19
2022-12-06T06:25:55.658Z,2.2
2022-12-06T06:29:15.167Z,2.2
2022-12-06T06:32:34.700Z,2.19
2022-12-06T06:35:54.218Z,2.18
2022-12-06T06:37:33.981Z,2.17
2022-12-06T06:39:13.756Z,2.16
2022-12-06T06:40:53.526Z,2.16
2022-12-06T06:42:33.268Z,2.17
2022-12-06T06:44:13.053Z,2.15
2022-12-06T06:45:52.804Z,2.13
2022-12-06T06:47:32.559Z,2.13
2022-12-06T06:49:12.343Z,2.14
2022-12-06T06:50:52.092Z,2.14
2022-12-06T06:54:11.631Z,2.11
2022-12-06T06:55:51.388Z,2.1
2022-12-06T06:57:31.146Z,2.13
2022-12-06T06:59:10.910Z,2.13
2022-12-06T07:02:30.449Z,2.08
2022-12-06T07:05:49.958Z,2.08
2022-12-06T07:07:29.746Z,2.08
2022-12-06T07:09:09.502Z,2.08
2022-12-06T07:10:49.259Z,2.08
2022-12-06T07:14:08.790Z,2.08
2022-12-06T07:15:48.543Z,2.07
2022-12-06T07:17:28.322Z,2.07
2022-12-06T07:19:08.096Z,2.05
2022-12-06T07:20:47.841Z,2.07
2022-12-06T07:22:27.611Z,2.06
2022-12-06T07:25:47.132Z,2.07
2022-12-06T07:27:26.898Z,2.04
2022-12-06T07:29:06.762Z,2.03
2022-12-06T07:32:26.198Z,2.03
2022-12-06T07:35:45.727Z,2.04
2022-12-06T07:37:25.560Z,2.04
2022-12-06T07:40:45.002Z,2.04
2022-12-06T07:42:24.787Z,2.03
2022-12-06T07:44:04.532Z,2.02
2022-12-06T07:45:44.434Z,2.02
2022-12-06T07:47:24.067Z,2.04
2022-12-06T07:49:03.827Z,2.04
2022-12-06T07:52:23.406Z,2.02
2022-12-06T07:54:03.115Z,2.03
2022-12-06T07:55:42.901Z,2.03
2022-12-06T07:57:22.646Z,2.03
2022-12-06T07:59:02.403Z,2.02
2022-12-06T08:00:42.182Z,2.04
2022-12-06T08:02:21.940Z,2.02
2022-12-06T08:04:01.694Z,2.03
2022-12-06T08:05:41.479Z,2.04
2022-12-06T08:07:21.229Z,2.06
2022-12-06T08:09:01.021Z,2.08
2022-12-06T08:10:40.758Z,2.05
2022-12-06T08:12:20.517Z,2.06
2022-12-06T08:14:00.290Z,2.08
2022-12-06T08:15:40.059Z,2.07
2022-12-06T08:17:19.815Z,2.09
2022-12-06T08:18:59.569Z,2.07
2022-12-06T08:20:39.331Z,2.03
2022-12-06T08:22:19.208Z,2.08
2022-12-06T08:23:58.898Z,2.08
2022-12-06T08:25:38.696Z,2.08
2022-12-06T08:27:18.466Z,2.08
2022-12-06T08:28:58.251Z,2.08
2022-12-06T08:30:37.926Z,2.09
2022-12-06T08:33:57.453Z,2.06
2022-12-06T08:35:37.241Z,2.08
2022-12-06T08:37:16.978Z,2.08
2022-12-06T08:38:56.750Z,2.11
2022-12-06T08:42:16.274Z,2.11
2022-12-06T08:43:56.054Z,2.09
2022-12-06T08:45:35.793Z,2.11
2022-12-06T08:47:15.571Z,2.09
2022-12-06T08:48:55.350Z,2.08
2022-12-06T08:50:35.102Z,2.1
2022-12-06T08:52:14.863Z,2.09
2022-12-06T08:55:34.395Z,2.08
2022-12-06T08:57:14.161Z,2.08
2022-12-06T08:58:53.930Z,2.09
2022-12-06T09:00:33.665Z,2.14
2022-12-06T09:02:13.458Z,2.09
2022-12-06T09:05:32.971Z,2.09
2022-12-06T09:07:12.769Z,2.1
2022-12-06T09:08:52.620Z,2.1
2022-12-06T09:12:12.028Z,2.1
2022-12-06T09:13:51.798Z,2.14
2022-12-06T09:17:11.312Z,2.14
2022-12-06T09:18:51.098Z,2.16
2022-12-06T09:20:30.837Z,2.16
2022-12-06T09:22:10.601Z,2.16
2022-12-06T09:23:50.374Z,2.17
2022-12-06T09:25:30.131Z,2.16
2022-12-06T09:28:49.661Z,2.2
2022-12-06T09:32:09.196Z,2.19
2022-12-06T09:33:48.976Z,2.19
2022-12-06T09:35:28.704Z,2.2
2022-12-06T09:37:08.500Z,2.2
2022-12-06T09:38:48.235Z,2.2
2022-12-06T09:40:28.015Z,2.2
2022-12-06T09:42:07.761Z,2.19
2022-12-06T09:43:47.533Z,2.21
2022-12-06T09:47:07.059Z,2.2
2022-12-06T09:48:46.876Z,2.2
2022-12-06T09:50:26.577Z,2.22
2022-12-06T09:52:06.345Z,2.21
2022-12-06T09:53:46.117Z,2.22
2022-12-06T09:55:26.006Z,2.22
2022-12-06T09:58:45.414Z,2.22
2022-12-06T10:00:25.298Z,2.25
2022-12-06T10:02:04.927Z,2.24
2022-12-06T10:03:44.706Z,2.31
2022-12-06T10:05:24.475Z,2.25
2022-12-06T10:07:04.226Z,2.28
2022-12-06T10:08:44.003Z,2.28
2022-12-06T10:10:23.750Z,2.27
2022-12-06T10:12:03.516Z,2.28
2022-12-06T10:15:23.035Z,2.3
2022-12-06T10:17:02.795Z,2.28
2022-12-06T10:22:02.099Z,2.31
2022-12-06T10:23:41.927Z,2.31
2022-12-06T10:25:21.628Z,2.32
2022-12-06T10:27:01.393Z,2.32
2022-12-06T10:28:41.210Z,2.32
2022-12-06T10:30:20.911Z,2.32
2022-12-06T10:32:00.693Z,2.33
2022-12-06T10:35:20.307Z,2.35
2022-12-06T10:36:59.967Z,2.39
2022-12-06T10:38:39.748Z,2.42
2022-12-06T10:41:59.287Z,2.39
2022-12-06T10:45:18.796Z,2.4
2022-12-06T10:46:58.556Z,2.41
2022-12-06T10:48:38.316Z,2.39
2022-12-06T10:51:57.859Z,2.42
2022-12-06T10:55:17.377Z,2.41
2022-12-06T10:56:57.134Z,2.42
2022-12-06T10:58:36.903Z,2.41
2022-12-06T11:01:56.444Z,2.43
2022-12-06T11:03:36.197Z,2.41
2022-12-06T11:05:15.952Z,2.42
2022-12-06T11:06:55.719Z,2.42
2022-12-06T11:08:35.534Z,2.4
2022-12-06T11:11:55.007Z,2.42
2022-12-06T11:13:34.784Z,2.45
2022-12-06T11:15:14.532Z,2.47
2022-12-06T11:21:53.592Z,2.49
2022-12-06T11:23:33.363Z,2.5
2022-12-06T11:25:13.144Z,2.48
2022-12-06T11:26:52.958Z,2.5
2022-12-06T11:28:32.644Z,2.5
2022-12-06T11:30:12.405Z,2.49
2022-12-06T11:31:52.173Z,2.5
2022-12-06T11:35:11.716Z,2.52
2022-12-06T11:38:31.252Z,2.53
2022-12-06T11:41:50.777Z,2.52
2022-12-06T11:45:10.288Z,2.52
2022-12-06T11:48:29.813Z,2.54
2022-12-06T11:51:49.338Z,2.51
2022-12-06T11:53:29.107Z,2.53
2022-12-06T11:55:08.864Z,2.48
2022-12-06T11:56:48.627Z,2.49
2022-12-06T11:58:28.416Z,2.48
2022-12-06T12:01:47.916Z,2.48
2022-12-06T12:03:27.693Z,2.48
2022-12-06T12:05:07.450Z,2.46
2022-12-06T12:06:47.229Z,2.49
2022-12-06T12:11:46.524Z,2.5
2022-12-06T12:15:06.056Z,2.49
2022-12-06T12:16:45.821Z,2.5
2022-12-06T12:18:25.573Z,2.48
2022-12-06T12:20:05.327Z,2.49
2022-12-06T12:21:45.090Z,2.47
2022-12-06T12:25:04.618Z,2.5
2022-12-06T12:26:44.391Z,2.51
2022-12-06T12:28:24.155Z,2.5
2022-12-06T12:33:23.434Z,2.5
2022-12-06T12:36:42.971Z,2.51
2022-12-06T12:38:22.761Z,2.49
2022-12-06T12:41:42.271Z,2.5
2022-12-06T12:43:22.033Z,2.49
2022-12-06T12:46:41.548Z,2.52
2022-12-06T12:48:21.328Z,2.52
2022-12-06T12:51:40.852Z,2.45
2022-12-06T12:53:20.615Z,2.53
2022-12-06T12:55:00.456Z,2.54
2022-12-06T12:56:40.172Z,2.51
2022-12-06T12:58:19.890Z,2.51
2022-12-06T13:01:39.423Z,2.54
2022-12-06T13:03:19.194Z,2.51
2022-12-06T13:04:58.945Z,2.51
2022-12-06T13:06:38.717Z,2.49
2022-12-06T13:08:18.496Z,2.51
2022-12-06T13:09:58.231Z,2.5
2022-12-06T13:11:38.012Z,2.51
2022-12-06T13:13:17.763Z,2.51
2022-12-06T13:14:57.538Z,2.51
2022-12-06T13:18:17.072Z,2.51
2022-12-06T13:21:36.593Z,2.49
2022-12-06T13:24:56.113Z,2.46
2022-12-06T13:26:35.876Z,2.49
2022-12-06T13:28:15.687Z,2.51
2022-12-06T13:29:55.410Z,2.5
2022-12-06T13:31:35.185Z,2.5
2022-12-06T13:33:14.940Z,2.5
2022-12-06T13:34:54.752Z,2.52
2022-12-06T13:38:14.236Z,2.5
2022-12-06T13:41:33.754Z,2.5
2022-12-06T13:43:13.513Z,2.49
2022-12-06T13:44:53.297Z,2.5
2022-12-06T13:46:33.056Z,2.49
2022-12-06T13:48:12.807Z,2.49
2022-12-06T13:51:32.342Z,2.45
2022-12-06T13:53:12.120Z,2.48
2022-12-06T13:54:51.881Z,2.46
2022-12-06T13:56:31.638Z,2.48
2022-12-06T13:58:11.393Z,2.46
2022-12-06T13:59:51.155Z,2.46
2022-12-06T14:01:30.926Z,2.47
2022-12-06T14:03:10.690Z,2.46
2022-12-06T14:04:50.472Z,2.46
2022-12-06T14:11:29.509Z,2.45
2022-12-06T14:13:09.310Z,2.46
2022-12-06T14:14:49.037Z,2.46
2022-12-06T14:16:28.800Z,2.45
2022-12-06T14:18:08.553Z,2.46
2022-12-06T14:19:48.314Z,2.45
2022-12-06T14:21:28.107Z,2.44
2022-12-06T14:23:07.859Z,2.47
2022-12-06T14:24:47.615Z,2.45
2022-12-06T14:26:27.390Z,2.47
2022-12-06T14:28:07.162Z,2.47
2022-12-06T14:29:46.895Z,2.47
2022-12-06T14:31:26.667Z,2.46
2022-12-06T14:33:06.444Z,2.45
2022-12-06T14:34:46.243Z,2.46
2022-12-06T14:36:25.961Z,2.47
2022-12-06T14:38:05.720Z,2.46
2022-12-06T14:39:45.506Z,2.45
2022-12-06T14:41:25.266Z,2.47
2022-12-06T14:43:05.027Z,2.48
2022-12-06T14:44:44.784Z,2.45
2022-12-06T14:46:24.603Z,2.45
2022-12-06T14:48:04.319Z,2.47
2022-12-06T14:51:23.846Z,2.44
2022-12-06T14:53:03.607Z,2.44
2022-12-06T14:54:43.371Z,2.44
2022-12-06T14:56:23.131Z,2.45
2022-12-06T14:58:02.902Z,2.45
2022-12-06T14:59:42.679Z,2.46
2022-12-06T15:01:22.419Z,2.42
2022-12-06T15:04:41.947Z,2.44
2022-12-06T15:08:01.645Z,2.44
2022-12-06T15:09:41.236Z,2.42
2022-12-06T15:11:21.016Z,2.44
2022-12-06T15:13:00.769Z,2.43
2022-12-06T15:14:40.534Z,2.42
2022-12-06T15:16:20.307Z,2.4
2022-12-06T15:18:00.078Z,2.43
2022-12-06T15:19:39.824Z,2.42
2022-12-06T15:21:19.592Z,2.39
2022-12-06T15:22:59.352Z,2.41
2022-12-06T15:24:39.119Z,2.42
2022-12-06T15:26:18.873Z,2.42
2022-12-06T15:27:58.646Z,2.43
2022-12-06T15:31:18.167Z,2.4
2022-12-06T15:32:57.959Z,2.39
2022-12-06T15:34:37.752Z,2.39
2022-12-06T15:37:57.221Z,2.4
2022-12-06T15:39:36.988Z,2.38
2022-12-06T15:41:16.760Z,2.38
2022-12-06T15:42:56.512Z,2.38
2022-12-06T15:44:36.274Z,2.36
2022-12-06T15:46:16.040Z,2.39
2022-12-06T15:47:55.812Z,2.35
2022-12-06T15:49:35.561Z,2.35
2022-12-06T15:51:15.327Z,2.36
2022-12-06T15:54:34.873Z,2.34
2022-12-06T15:56:14.624Z,2.38
2022-12-06T15:57:54.384Z,2.36
2022-12-06T15:59:34.152Z,2.36
2022-12-06T16:01:13.923Z,2.34
2022-12-06T16:02:53.691Z,2.35
2022-12-06T16:04:33.471Z,2.34
2022-12-06T16:06:13.202Z,2.34
2022-12-06T16:07:52.971Z,2.36
2022-12-06T16:11:12.526Z,2.34
2022-12-06T16:12:52.338Z,2.33
2022-12-06T16:14:32.042Z,2.34
2022-12-06T16:17:51.564Z,2.33
2022-12-06T16:19:31.322Z,2.33
2022-12-06T16:21:11.076Z,2.32
2022-12-06T16:22:50.850Z,2.32
2022-12-06T16:24:30.607Z,2.33
2022-12-06T16:26:10.385Z,2.3
2022-12-06T16:27:50.150Z,2.33
2022-12-06T16:29:29.897Z,2.33
2022-12-06T16:31:09.671Z,2.32
2022-12-06T16:32:49.449Z,2.32
2022-12-06T16:34:29.189Z,2.31
2022-12-06T16:36:08.969Z,2.33
2022-12-06T16:37:48.715Z,2.32
2022-12-06T16:39:28.491Z,2.31
2022-12-06T16:41:08.256Z,2.33
2022-12-06T16:42:48.021Z,2.32
2022-12-06T16:44:27.781Z,2.31
2022-12-06T16:46:07.642Z,2.32
2022-12-06T16:47:47.297Z,2.33
2022-12-06T16:49:27.066Z,2.33
2022-12-06T16:51:06.857Z,2.33
2022-12-06T16:52:46.592Z,2.33
2022-12-06T16:54:26.362Z,2.31
2022-12-06T16:56:06.121Z,2.33
2022-12-06T16:57:45.877Z,2.33
2022-12-06T16:59:25.653Z,2.32
2022-12-06T17:01:05.412Z,2.32
2022-12-06T17:02:45.180Z,2.32
2022-12-06T17:04:24.941Z,2.32
2022-12-06T17:06:04.726Z,2.3
2022-12-06T17:07:44.472Z,2.32
2022-12-06T17:09:24.248Z,2.34
2022-12-06T17:11:03.990Z,2.34
2022-12-06T17:12:43.754Z,2.34
2022-12-06T17:14:23.540Z,2.38
2022-12-06T17:16:03.282Z,2.33
2022-12-06T17:17:43.082Z,2.34
2022-12-06T17:19:22.881Z,2.34
2022-12-06T17:22:42.368Z,2.34
2022-12-06T17:24:22.116Z,2.34
2022-12-06T17:26:01.883Z,2.33
2022-12-06T17:29:21.423Z,2.33
2022-12-06T17:31:01.174Z,2.33
2022-12-06T17:32:40.930Z,2.33
2022-12-06T17:34:20.692Z,2.33
2022-12-06T17:36:00.451Z,2.35
2022-12-06T17:37:40.232Z,2.34
2022-12-06T17:39:19.976Z,2.34
2022-12-06T17:40:59.759Z,2.36
2022-12-06T17:44:19.403Z,2.34
2022-12-06T17:45:59.035Z,2.34
2022-12-06T17:47:38.805Z,2.34
2022-12-06T17:49:18.568Z,2.33
2022-12-06T17:50:58.333Z,2.34
2022-12-06T17:52:38.112Z,2.34
2022-12-06T17:55:57.623Z,2.35
2022-12-06T17:57:37.393Z,2.36
2022-12-06T18:00:56.904Z,2.4
2022-12-06T18:02:36.673Z,2.35
2022-12-06T18:04:16.445Z,2.38
2022-12-06T18:05:56.265Z,2.36
2022-12-06T18:07:36.044Z,2.38
2022-12-06T18:09:15.730Z,2.36
2022-12-06T18:10:55.501Z,2.39
2022-12-06T18:12:35.457Z,2.38
2022-12-06T18:14:15.186Z,2.39
2022-12-06T18:15:54.916Z,2.39
2022-12-06T18:17:34.727Z,2.39
2022-12-06T18:19:14.395Z,2.41
2022-12-06T18:20:54.323Z,2.42
2022-12-06T18:22:34.010Z,2.4
2022-12-06T18:24:13.740Z,2.4
2022-12-06T18:25:53.418Z,2.4
2022-12-06T18:27:33.379Z,2.43
2022-12-06T18:29:13.069Z,2.43
2022-12-06T18:30:52.837Z,2.43
2022-12-06T18:32:32.417Z,2.45
2022-12-06T18:34:12.241Z,2.42
2022-12-06T18:35:51.949Z,2.42
2022-12-06T18:37:31.888Z,2.46
2022-12-06T18:39:11.579Z,2.35
2022-12-06T18:40:51.236Z,2.45
2022-12-06T18:44:11.037Z,2.47
2022-12-06T18:47:30.372Z,2.48
2022-12-06T18:50:50.027Z,2.49
2022-12-06T18:52:29.777Z,2.5
2022-12-06T18:54:09.518Z,2.5
2022-12-06T18:55:49.262Z,2.47
2022-12-06T18:57:29.084Z,2.47
2022-12-06T18:59:08.903Z,2.47
2022-12-06T19:00:48.517Z,2.49
2022-12-06T19:02:28.361Z,2.5
2022-12-06T19:04:08.142Z,2.51
2022-12-06T19:07:27.595Z,2.51
2022-12-06T19:10:47.105Z,2.5
2022-12-06T19:12:26.916Z,2.53
2022-12-06T19:14:06.686Z,2.52
2022-12-06T19:15:46.413Z,2.52
2022-12-06T19:17:26.200Z,2.51
2022-12-06T19:19:05.909Z,2.55
2022-12-06T19:20:45.739Z,2.54
2022-12-06T19:22:25.421Z,2.55
2022-12-06T19:24:05.089Z,2.56
2022-12-06T19:27:24.781Z,2.56
2022-12-06T19:29:04.392Z,2.55
2022-12-06T19:30:44.265Z,2.58
2022-12-06T19:34:03.780Z,2.59
2022-12-06T19:35:43.575Z,2.58
2022-12-06T19:37:23.371Z,2.58
2022-12-06T19:39:02.986Z,2.59
2022-12-06T19:42:22.519Z,2.61
2022-12-06T19:44:02.261Z,2.62
2022-12-06T19:45:42.160Z,2.61
2022-12-06T19:47:21.975Z,2.62
2022-12-06T19:49:01.671Z,2.61
2022-12-06T19:50:41.453Z,2.63
2022-12-06T19:54:01.017Z,2.64
2022-12-06T19:55:40.617Z,2.66
2022-12-06T19:59:00.219Z,2.64
2022-12-06T20:00:39.913Z,2.66
2022-12-06T20:02:19.760Z,2.65
2022-12-06T20:03:59.579Z,2.65
2022-12-06T20:05:39.344Z,2.67
2022-12-06T20:07:18.992Z,2.68
2022-12-06T20:08:58.795Z,2.67
2022-12-06T20:10:38.520Z,2.68
2022-12-06T20:12:18.404Z,2.68
2022-12-06T20:13:58.027Z,2.69
2022-12-06T20:18:57.383Z,2.69
2022-12-06T20:20:37.204Z,2.69
2022-12-06T20:22:16.842Z,2.71
2022-12-06T20:23:56.712Z,2.72
2022-12-06T20:25:36.501Z,2.7
2022-12-06T20:27:16.273Z,2.63
2022-12-06T20:28:55.985Z,2.71
2022-12-06T20:30:35.824Z,2.72
2022-12-06T20:32:15.610Z,2.72
2022-12-06T20:33:55.201Z,2.73
2022-12-06T20:35:34.944Z,2.74
2022-12-06T20:37:14.865Z,2.74
2022-12-06T20:38:54.614Z,2.76
2022-12-06T20:40:34.377Z,2.74
2022-12-06T20:42:14.097Z,2.78
2022-12-06T20:43:53.911Z,2.75
2022-12-06T20:45:33.609Z,2.78
2022-12-06T20:47:13.498Z,2.77
2022-12-06T20:48:53.250Z,2.78
2022-12-06T20:50:32.907Z,2.79
2022-12-06T20:52:12.709Z,2.78
2022-12-06T20:53:52.443Z,2.81
2022-12-06T20:55:32.139Z,2.8
2022-12-06T20:57:12.075Z,2.81
2022-12-06T20:58:51.755Z,2.8
2022-12-06T21:00:31.549Z,2.81
2022-12-06T21:03:51.006Z,2.85
2022-12-06T21:07:10.553Z,2.83
2022-12-06T21:08:50.219Z,2.74
2022-12-06T21:10:30.040Z,2.85
2022-12-06T21:12:09.839Z,2.87
2022-12-06T21:13:49.603Z,2.86
2022-12-06T21:17:09.204Z,2.88
2022-12-06T21:20:28.648Z,2.87
2022-12-06T21:22:08.407Z,2.87
2022-12-06T21:23:48.092Z,2.88
2022-12-06T21:25:27.937Z,2.88
2022-12-06T21:27:07.619Z,2.87
2022-12-06T21:28:47.579Z,2.89
2022-12-06T21:30:27.240Z,2.9
2022-12-06T21:32:06.909Z,2.92
2022-12-06T21:33:46.733Z,2.9
2022-12-06T21:37:06.325Z,2.87
2022-12-06T21:38:46.104Z,2.89
2022-12-06T21:40:25.736Z,2.93
2022-12-06T21:42:05.587Z,2.9
2022-12-06T21:43:45.434Z,2.91
2022-12-06T21:45:25.100Z,2.88
2022-12-06T21:47:04.866Z,2.89
2022-12-06T21:48:44.737Z,2.9
2022-12-06T21:50:24.395Z,2.88
2022-12-06T21:52:04.239Z,2.9
2022-12-06T21:53:43.934Z,2.88
2022-12-06T21:55:23.683Z,2.9
2022-12-06T21:57:03.494Z,2.88
2022-12-06T21:58:43.197Z,2.9
2022-12-06T22:00:23.031Z,2.89
2022-12-06T22:03:42.570Z,2.9
2022-12-06T22:05:22.281Z,2.9
2022-12-06T22:07:02.048Z,2.9
2022-12-06T22:08:41.724Z,2.89
2022-12-06T22:10:21.571Z,2.87
2022-12-06T22:12:01.374Z,2.91
2022-12-06T22:15:20.768Z,2.89
2022-12-06T22:17:00.612Z,2.9
2022-12-06T22:18:40.316Z,2.88
2022-12-06T22:20:20.082Z,2.89
2022-12-06T22:21:59.924Z,2.88
2022-12-06T22:23:39.621Z,2.88
2022-12-06T22:25:19.584Z,2.86
2022-12-06T22:26:59.166Z,2.88
2022-12-06T22:28:38.937Z,2.87
2022-12-06T22:30:18.758Z,2.86
2022-12-06T22:31:58.547Z,2.89
2022-12-06T22:33:38.193Z,2.85
2022-12-06T22:36:57.704Z,2.84
2022-12-06T22:38:37.463Z,2.86
2022-12-06T22:40:17.348Z,2.84
2022-12-06T22:41:57.085Z,2.84
2022-12-06T22:43:36.763Z,2.84
2022-12-06T22:45:16.642Z,2.83
2022-12-06T22:46:56.411Z,2.84
2022-12-06T22:48:36.135Z,2.84
2022-12-06T22:50:15.805Z,2.85
2022-12-06T22:51:55.589Z,2.84
2022-12-06T22:53:35.415Z,2.85
2022-12-06T22:56:54.945Z,2.84
2022-12-06T22:58:34.691Z,2.86
2022-12-06T23:00:14.388Z,2.85
2022-12-06T23:06:53.528Z,2.82
2022-12-06T23:08:33.369Z,2.84
2022-12-06T23:10:12.972Z,2.83
2022-12-06T23:11:52.827Z,2.82
2022-12-06T23:13:32.524Z,2.82
2022-12-06T23:15:12.272Z,2.83
2022-12-06T23:16:52.034Z,2.82
2022-12-06T23:18:31.857Z,2.83
2022-12-06T23:20:11.570Z,2.82
2022-12-06T23:21:51.379Z,2.82
2022-12-06T23:23:31.102Z,2.81
2022-12-06T23:26:50.615Z,2.8
2022-12-06T23:28:30.391Z,2.8
2022-12-06T23:30:10.167Z,2.82
2022-12-06T23:31:49.922Z,2.79
2022-12-06T23:33:29.679Z,2.8
2022-12-06T23:35:09.500Z,2.79
2022-12-06T23:36:49.205Z,2.77
2022-12-06T23:38:28.991Z,2.8
2022-12-06T23:40:08.736Z,2.76
2022-12-06T23:41:48.556Z,2.76
2022-12-06T23:43:28.267Z,2.75
2022-12-06T23:46:47.850Z,2.73
2022-12-06T23:48:27.541Z,2.7
2022-12-06T23:50:07.326Z,2.69
2022-12-06T23:51:47.158Z,2.68
2022-12-06T23:53:26.874Z,2.65
2022-12-06T23:55:06.618Z,2.66
2022-12-06T23:56:46.497Z,2.62
2022-12-06T23:58:26.134Z,2.61
